首页
METAR-TAF:

METAR-TAF

机场 :

Pensacola Regional Airport

彭萨科拉, 佛罗里达州, 美国

纬度: 30-28-41N, 经度: 087-11-13W, 海拔: 36米

当前天气观测

该预报发布于44分钟前的14:53 UTC
风速6节,风向西转西北
温度
气压 1015 hPa
能見度: 14.5公里
天空无云

METAR: KPNS 241453Z 29006KT 9SM CLR A2996 RMK AO2 SLPNO 6//// 51009 PNO $

时间: 10:37 (15:37 UTC)

预报

该预报发布于4小时和5分钟前的11:32 UTC
预报有效从24日的 12点(UTC)到 25日的 12点(UTC)
风速4节,风向多变
能見度: 10公里
少量云层高于2500英尺
短暂存在
从 24日的 16点(UTC)到 24日的 17点(UTC)
多云层高于2500英尺
从 24日的 1900点(UTC)
风速7节,风向西南
能見度: 10公里
散云层高于2500英尺, 积雨云.
散云层高于11000英尺
附近有雷暴
几率 30%
从 24日的 21点(UTC)到 25日的 03点(UTC)
能見度: 6.4公里
多云层高于2400英尺, 积雨云.
多云层高于2600英尺
多云层高于3500英尺
雷暴, 雨, 轻雾,

TAF: KPNS 241132Z 2412/2512 VRB04KT P6SM FEW025 TEMPO 2416/2417 BKN025 FM241900 22007KT P6SM VCTS SCT025CB SCT110 PROB30 2421/2503 4SM TSRA BR BKN024CB BKN026 BKN035

超过4000个机场的气象观测和天气预报(METAR&TAF报告)。

可查询的气象台以黄色和红色小点在地图上表示。

将鼠标移到小点上方,可查看气象台名称。

然后点击查看天气观测和预报。

如需切换地图:点击带黑十字的绿色按钮放大地图;点击带横线的绿色按钮缩小地图;或者点击绿色箭头查看邻近地区的地图。


METAR-TAF: